sensor_id;sensor_type;location;lat;lon;timestamp;P1;durP1;ratioP1;P2;durP2;ratioP2
54191;SDS011;40101;53.002;6.488;2023-08-20T00:01:15;12.00;;;3.20;;
54191;SDS011;40101;53.002;6.488;2023-08-20T00:03:47;8.15;;;3.50;;
54191;SDS011;40101;53.002;6.488;2023-08-20T00:06:16;10.23;;;2.53;;
54191;SDS011;40101;53.002;6.488;2023-08-20T00:08:50;5.38;;;2.50;;
54191;SDS011;40101;53.002;6.488;2023-08-20T00:11:16;6.85;;;2.80;;
54191;SDS011;40101;53.002;6.488;2023-08-20T00:13:45;5.50;;;2.58;;
54191;SDS011;40101;53.002;6.488;2023-08-20T00:16:13;7.53;;;2.40;;
54191;SDS011;40101;53.002;6.488;2023-08-20T00:18:39;8.25;;;2.20;;
54191;SDS011;40101;53.002;6.488;2023-08-20T00:21:10;4.97;;;2.00;;
54191;SDS011;40101;53.002;6.488;2023-08-20T00:23:36;5.90;;;1.85;;
54191;SDS011;40101;53.002;6.488;2023-08-20T00:26:02;8.82;;;2.47;;
54191;SDS011;40101;53.002;6.488;2023-08-20T00:28:53;12.05;;;3.90;;
54191;SDS011;40101;53.002;6.488;2023-08-20T00:31:41;12.02;;;3.78;;
54191;SDS011;40101;53.002;6.488;2023-08-20T00:34:09;3.33;;;2.65;;
54191;SDS011;40101;53.002;6.488;2023-08-20T00:36:39;6.70;;;2.67;;
54191;SDS011;40101;53.002;6.488;2023-08-20T00:39:08;10.18;;;2.20;;
54191;SDS011;40101;53.002;6.488;2023-08-20T00:41:45;4.65;;;2.10;;
54191;SDS011;40101;53.002;6.488;2023-08-20T00:44:10;10.20;;;3.58;;
54191;SDS011;40101;53.002;6.488;2023-08-20T00:46:36;5.63;;;2.90;;
54191;SDS011;40101;53.002;6.488;2023-08-20T00:49:08;2.83;;;1.60;;
54191;SDS011;40101;53.002;6.488;2023-08-20T00:51:33;6.97;;;1.88;;
54191;SDS011;40101;53.002;6.488;2023-08-20T00:54:00;1.60;;;1.00;;
54191;SDS011;40101;53.002;6.488;2023-08-20T00:56:27;2.92;;;1.42;;
54191;SDS011;40101;53.002;6.488;2023-08-20T00:58:56;1.95;;;1.30;;
54191;SDS011;40101;53.002;6.488;2023-08-20T01:01:22;4.97;;;1.70;;
54191;SDS011;40101;53.002;6.488;2023-08-20T01:03:48;5.10;;;1.95;;
54191;SDS011;40101;53.002;6.488;2023-08-20T01:06:23;4.40;;;1.98;;
54191;SDS011;40101;53.002;6.488;2023-08-20T01:09:18;4.32;;;1.42;;
54191;SDS011;40101;53.002;6.488;2023-08-20T01:11:52;2.53;;;1.55;;
54191;SDS011;40101;53.002;6.488;2023-08-20T01:14:22;4.20;;;1.42;;
54191;SDS011;40101;53.002;6.488;2023-08-20T01:16:48;7.72;;;2.15;;
54191;SDS011;40101;53.002;6.488;2023-08-20T01:19:16;1.58;;;1.40;;
54191;SDS011;40101;53.002;6.488;2023-08-20T01:21:56;2.90;;;1.60;;
54191;SDS011;40101;53.002;6.488;2023-08-20T01:30:07;10.68;;;4.30;;
54191;SDS011;40101;53.002;6.488;2023-08-20T01:32:35;10.35;;;4.53;;
54191;SDS011;40101;53.002;6.488;2023-08-20T01:35:02;12.75;;;5.45;;
54191;SDS011;40101;53.002;6.488;2023-08-20T01:37:28;8.75;;;4.05;;
54191;SDS011;40101;53.002;6.488;2023-08-20T01:39:54;10.75;;;3.60;;
54191;SDS011;40101;53.002;6.488;2023-08-20T01:42:20;13.30;;;3.70;;
54191;SDS011;40101;53.002;6.488;2023-08-20T01:44:45;12.07;;;3.40;;
54191;SDS011;40101;53.002;6.488;2023-08-20T01:47:11;4.40;;;3.00;;
54191;SDS011;40101;53.002;6.488;2023-08-20T01:49:39;8.85;;;3.17;;
54191;SDS011;40101;53.002;6.488;2023-08-20T01:52:05;8.80;;;3.10;;
54191;SDS011;40101;53.002;6.488;2023-08-20T01:54:31;7.47;;;3.63;;
54191;SDS011;40101;53.002;6.488;2023-08-20T01:56:56;7.15;;;3.60;;
54191;SDS011;40101;53.002;6.488;2023-08-20T01:59:22;5.93;;;3.10;;
54191;SDS011;40101;53.002;6.488;2023-08-20T02:01:48;8.85;;;2.50;;
54191;SDS011;40101;53.002;6.488;2023-08-20T02:04:14;8.13;;;3.50;;
54191;SDS011;40101;53.002;6.488;2023-08-20T02:06:43;10.55;;;4.85;;
54191;SDS011;40101;53.002;6.488;2023-08-20T02:09:08;9.73;;;5.70;;
54191;SDS011;40101;53.002;6.488;2023-08-20T02:11:35;14.68;;;6.95;;
54191;SDS011;40101;53.002;6.488;2023-08-20T02:14:02;15.00;;;7.82;;
54191;SDS011;40101;53.002;6.488;2023-08-20T02:16:27;15.75;;;7.60;;
54191;SDS011;40101;53.002;6.488;2023-08-20T02:18:53;17.10;;;8.20;;
54191;SDS011;40101;53.002;6.488;2023-08-20T02:21:19;12.68;;;7.45;;
54191;SDS011;40101;53.002;6.488;2023-08-20T02:23:45;14.23;;;7.15;;
54191;SDS011;40101;53.002;6.488;2023-08-20T02:26:11;12.48;;;7.13;;
54191;SDS011;40101;53.002;6.488;2023-08-20T02:28:36;15.68;;;7.85;;
54191;SDS011;40101;53.002;6.488;2023-08-20T02:31:05;13.90;;;7.28;;
54191;SDS011;40101;53.002;6.488;2023-08-20T02:33:31;10.40;;;6.50;;
54191;SDS011;40101;53.002;6.488;2023-08-20T02:36:00;20.35;;;8.07;;
54191;SDS011;40101;53.002;6.488;2023-08-20T02:38:30;11.60;;;7.85;;
54191;SDS011;40101;53.002;6.488;2023-08-20T02:40:55;18.27;;;8.55;;
54191;SDS011;40101;53.002;6.488;2023-08-20T02:43:21;11.70;;;7.70;;
54191;SDS011;40101;53.002;6.488;2023-08-20T02:45:47;11.15;;;6.75;;
54191;SDS011;40101;53.002;6.488;2023-08-20T02:48:13;14.98;;;7.70;;
54191;SDS011;40101;53.002;6.488;2023-08-20T02:50:39;9.55;;;6.05;;
54191;SDS011;40101;53.002;6.488;2023-08-20T02:53:05;15.95;;;6.65;;
54191;SDS011;40101;53.002;6.488;2023-08-20T02:55:31;7.80;;;5.05;;
54191;SDS011;40101;53.002;6.488;2023-08-20T02:57:58;11.68;;;6.68;;
54191;SDS011;40101;53.002;6.488;2023-08-20T03:00:23;11.70;;;5.88;;
54191;SDS011;40101;53.002;6.488;2023-08-20T03:02:49;15.60;;;7.05;;
54191;SDS011;40101;53.002;6.488;2023-08-20T03:05:15;14.57;;;7.53;;
54191;SDS011;40101;53.002;6.488;2023-08-20T03:07:41;17.55;;;6.80;;
54191;SDS011;40101;53.002;6.488;2023-08-20T03:10:06;15.80;;;6.88;;
54191;SDS011;40101;53.002;6.488;2023-08-20T03:12:32;14.10;;;7.32;;
54191;SDS011;40101;53.002;6.488;2023-08-20T03:14:58;15.30;;;7.97;;
54191;SDS011;40101;53.002;6.488;2023-08-20T03:17:25;12.98;;;7.88;;
54191;SDS011;40101;53.002;6.488;2023-08-20T03:19:54;13.07;;;6.72;;
54191;SDS011;40101;53.002;6.488;2023-08-20T03:22:21;14.70;;;6.85;;
54191;SDS011;40101;53.002;6.488;2023-08-20T03:24:48;11.48;;;6.75;;
54191;SDS011;40101;53.002;6.488;2023-08-20T03:27:13;17.30;;;7.28;;
54191;SDS011;40101;53.002;6.488;2023-08-20T03:29:39;11.48;;;6.68;;
54191;SDS011;40101;53.002;6.488;2023-08-20T03:32:05;7.47;;;5.88;;
54191;SDS011;40101;53.002;6.488;2023-08-20T03:34:31;9.20;;;5.72;;
54191;SDS011;40101;53.002;6.488;2023-08-20T03:36:56;14.35;;;6.05;;
54191;SDS011;40101;53.002;6.488;2023-08-20T03:39:22;15.05;;;7.18;;
54191;SDS011;40101;53.002;6.488;2023-08-20T03:41:49;11.35;;;6.80;;
54191;SDS011;40101;53.002;6.488;2023-08-20T03:44:15;12.43;;;6.15;;
54191;SDS011;40101;53.002;6.488;2023-08-20T03:46:41;12.27;;;6.85;;
54191;SDS011;40101;53.002;6.488;2023-08-20T03:49:07;14.68;;;6.22;;
54191;SDS011;40101;53.002;6.488;2023-08-20T03:51:32;10.32;;;6.75;;
54191;SDS011;40101;53.002;6.488;2023-08-20T03:53:58;7.30;;;4.85;;
54191;SDS011;40101;53.002;6.488;2023-08-20T03:56:24;9.55;;;6.22;;
54191;SDS011;40101;53.002;6.488;2023-08-20T03:58:50;12.85;;;6.38;;
54191;SDS011;40101;53.002;6.488;2023-08-20T04:01:15;10.43;;;7.00;;
54191;SDS011;40101;53.002;6.488;2023-08-20T04:03:41;6.88;;;5.57;;
54191;SDS011;40101;53.002;6.488;2023-08-20T04:06:06;9.52;;;5.00;;
54191;SDS011;40101;53.002;6.488;2023-08-20T04:08:32;11.55;;;6.40;;
54191;SDS011;40101;53.002;6.488;2023-08-20T04:10:58;7.45;;;4.95;;
54191;SDS011;40101;53.002;6.488;2023-08-20T04:13:24;8.00;;;5.57;;
54191;SDS011;40101;53.002;6.488;2023-08-20T04:15:50;9.25;;;5.03;;
54191;SDS011;40101;53.002;6.488;2023-08-20T04:18:16;5.80;;;4.60;;
54191;SDS011;40101;53.002;6.488;2023-08-20T04:20:42;7.85;;;4.45;;
54191;SDS011;40101;53.002;6.488;2023-08-20T04:23:08;8.60;;;5.38;;
54191;SDS011;40101;53.002;6.488;2023-08-20T04:25:33;12.32;;;5.38;;
54191;SDS011;40101;53.002;6.488;2023-08-20T04:27:59;8.85;;;5.72;;
54191;SDS011;40101;53.002;6.488;2023-08-20T04:30:25;14.27;;;5.90;;
54191;SDS011;40101;53.002;6.488;2023-08-20T04:32:51;10.90;;;5.35;;
54191;SDS011;40101;53.002;6.488;2023-08-20T04:35:16;10.38;;;6.18;;
54191;SDS011;40101;53.002;6.488;2023-08-20T04:37:42;6.95;;;5.13;;
54191;SDS011;40101;53.002;6.488;2023-08-20T04:40:08;8.77;;;5.60;;
54191;SDS011;40101;53.002;6.488;2023-08-20T04:42:35;10.88;;;6.60;;
54191;SDS011;40101;53.002;6.488;2023-08-20T04:45:00;11.05;;;6.30;;
54191;SDS011;40101;53.002;6.488;2023-08-20T04:47:26;11.15;;;6.30;;
54191;SDS011;40101;53.002;6.488;2023-08-20T04:49:52;8.40;;;5.00;;
54191;SDS011;40101;53.002;6.488;2023-08-20T04:52:18;8.13;;;5.28;;
54191;SDS011;40101;53.002;6.488;2023-08-20T04:54:45;8.35;;;5.22;;
54191;SDS011;40101;53.002;6.488;2023-08-20T04:57:11;8.05;;;4.90;;
54191;SDS011;40101;53.002;6.488;2023-08-20T04:59:37;8.55;;;5.10;;
54191;SDS011;40101;53.002;6.488;2023-08-20T05:02:03;7.80;;;5.57;;
54191;SDS011;40101;53.002;6.488;2023-08-20T05:04:29;9.60;;;6.10;;
54191;SDS011;40101;53.002;6.488;2023-08-20T05:06:54;9.40;;;7.32;;
54191;SDS011;40101;53.002;6.488;2023-08-20T05:09:20;9.00;;;6.40;;
54191;SDS011;40101;53.002;6.488;2023-08-20T05:11:46;12.07;;;5.72;;
54191;SDS011;40101;53.002;6.488;2023-08-20T05:14:12;11.38;;;5.78;;
54191;SDS011;40101;53.002;6.488;2023-08-20T05:16:37;9.15;;;5.57;;
54191;SDS011;40101;53.002;6.488;2023-08-20T05:19:03;8.68;;;5.30;;
54191;SDS011;40101;53.002;6.488;2023-08-20T05:21:29;12.52;;;5.18;;
54191;SDS011;40101;53.002;6.488;2023-08-20T05:23:54;5.85;;;4.25;;
54191;SDS011;40101;53.002;6.488;2023-08-20T05:26:21;8.85;;;4.93;;
54191;SDS011;40101;53.002;6.488;2023-08-20T05:28:47;7.28;;;5.22;;
54191;SDS011;40101;53.002;6.488;2023-08-20T05:31:13;13.93;;;6.20;;
54191;SDS011;40101;53.002;6.488;2023-08-20T05:33:39;10.38;;;5.57;;
54191;SDS011;40101;53.002;6.488;2023-08-20T05:36:05;10.63;;;6.70;;
54191;SDS011;40101;53.002;6.488;2023-08-20T05:38:30;12.30;;;6.38;;
54191;SDS011;40101;53.002;6.488;2023-08-20T05:40:56;10.88;;;5.85;;
54191;SDS011;40101;53.002;6.488;2023-08-20T05:43:22;15.43;;;7.72;;
54191;SDS011;40101;53.002;6.488;2023-08-20T05:45:47;12.27;;;7.32;;
54191;SDS011;40101;53.002;6.488;2023-08-20T05:48:13;13.63;;;7.15;;
54191;SDS011;40101;53.002;6.488;2023-08-20T05:50:38;12.65;;;5.97;;
54191;SDS011;40101;53.002;6.488;2023-08-20T05:53:04;7.72;;;6.10;;
54191;SDS011;40101;53.002;6.488;2023-08-20T05:55:30;8.90;;;7.03;;
54191;SDS011;40101;53.002;6.488;2023-08-20T05:57:55;9.80;;;6.78;;
54191;SDS011;40101;53.002;6.488;2023-08-20T06:00:21;11.95;;;7.72;;
54191;SDS011;40101;53.002;6.488;2023-08-20T06:02:47;13.93;;;7.60;;
54191;SDS011;40101;53.002;6.488;2023-08-20T06:05:12;11.23;;;6.78;;
54191;SDS011;40101;53.002;6.488;2023-08-20T06:07:38;12.77;;;6.35;;
54191;SDS011;40101;53.002;6.488;2023-08-20T06:10:05;13.02;;;7.13;;
54191;SDS011;40101;53.002;6.488;2023-08-20T06:12:32;10.80;;;6.65;;
54191;SDS011;40101;53.002;6.488;2023-08-20T06:14:58;12.18;;;6.55;;
54191;SDS011;40101;53.002;6.488;2023-08-20T06:17:23;13.30;;;6.10;;
54191;SDS011;40101;53.002;6.488;2023-08-20T06:19:49;14.50;;;7.28;;
54191;SDS011;40101;53.002;6.488;2023-08-20T06:22:15;17.70;;;6.82;;
54191;SDS011;40101;53.002;6.488;2023-08-20T06:24:40;19.58;;;6.78;;
54191;SDS011;40101;53.002;6.488;2023-08-20T06:27:06;13.20;;;6.00;;
54191;SDS011;40101;53.002;6.488;2023-08-20T06:29:32;10.40;;;5.95;;
54191;SDS011;40101;53.002;6.488;2023-08-20T06:31:57;13.80;;;6.10;;
54191;SDS011;40101;53.002;6.488;2023-08-20T06:34:23;17.85;;;5.88;;
54191;SDS011;40101;53.002;6.488;2023-08-20T06:36:49;12.40;;;6.22;;
54191;SDS011;40101;53.002;6.488;2023-08-20T06:39:15;11.02;;;6.05;;
54191;SDS011;40101;53.002;6.488;2023-08-20T06:41:41;12.23;;;6.40;;
54191;SDS011;40101;53.002;6.488;2023-08-20T06:44:06;18.92;;;6.05;;
54191;SDS011;40101;53.002;6.488;2023-08-20T06:46:32;12.13;;;5.60;;
54191;SDS011;40101;53.002;6.488;2023-08-20T06:48:58;16.63;;;6.22;;
54191;SDS011;40101;53.002;6.488;2023-08-20T06:51:24;16.08;;;6.70;;
54191;SDS011;40101;53.002;6.488;2023-08-20T06:53:50;11.80;;;5.70;;
54191;SDS011;40101;53.002;6.488;2023-08-20T06:56:16;14.68;;;6.28;;
54191;SDS011;40101;53.002;6.488;2023-08-20T06:58:42;17.00;;;5.88;;
54191;SDS011;40101;53.002;6.488;2023-08-20T07:01:08;7.93;;;4.65;;
54191;SDS011;40101;53.002;6.488;2023-08-20T07:03:37;15.35;;;5.40;;
54191;SDS011;40101;53.002;6.488;2023-08-20T07:06:07;14.40;;;5.80;;
54191;SDS011;40101;53.002;6.488;2023-08-20T07:08:34;11.50;;;5.70;;
54191;SDS011;40101;53.002;6.488;2023-08-20T07:11:01;16.63;;;4.90;;
54191;SDS011;40101;53.002;6.488;2023-08-20T07:13:27;7.03;;;4.82;;
54191;SDS011;40101;53.002;6.488;2023-08-20T07:15:53;7.63;;;4.35;;
54191;SDS011;40101;53.002;6.488;2023-08-20T07:18:19;10.13;;;4.40;;
54191;SDS011;40101;53.002;6.488;2023-08-20T07:20:45;11.77;;;4.20;;
54191;SDS011;40101;53.002;6.488;2023-08-20T07:23:11;11.70;;;3.78;;
54191;SDS011;40101;53.002;6.488;2023-08-20T07:25:37;13.65;;;4.90;;
54191;SDS011;40101;53.002;6.488;2023-08-20T07:28:06;10.90;;;4.47;;
54191;SDS011;40101;53.002;6.488;2023-08-20T07:30:34;8.60;;;3.53;;
54191;SDS011;40101;53.002;6.488;2023-08-20T07:33:00;14.65;;;4.20;;
54191;SDS011;40101;53.002;6.488;2023-08-20T07:35:26;10.23;;;3.20;;
54191;SDS011;40101;53.002;6.488;2023-08-20T07:37:52;6.72;;;2.95;;
54191;SDS011;40101;53.002;6.488;2023-08-20T07:40:17;9.35;;;2.90;;
54191;SDS011;40101;53.002;6.488;2023-08-20T07:42:43;11.18;;;3.35;;
54191;SDS011;40101;53.002;6.488;2023-08-20T07:45:09;7.85;;;2.75;;
54191;SDS011;40101;53.002;6.488;2023-08-20T07:47:35;10.02;;;2.88;;
54191;SDS011;40101;53.002;6.488;2023-08-20T07:50:02;6.43;;;2.10;;
54191;SDS011;40101;53.002;6.488;2023-08-20T07:52:31;11.50;;;2.55;;
54191;SDS011;40101;53.002;6.488;2023-08-20T07:54:57;11.00;;;2.70;;
54191;SDS011;40101;53.002;6.488;2023-08-20T07:57:23;9.73;;;2.38;;
54191;SDS011;40101;53.002;6.488;2023-08-20T07:59:49;6.50;;;2.45;;
54191;SDS011;40101;53.002;6.488;2023-08-20T08:02:15;9.82;;;2.47;;
54191;SDS011;40101;53.002;6.488;2023-08-20T08:04:41;5.80;;;2.13;;
54191;SDS011;40101;53.002;6.488;2023-08-20T08:07:10;6.60;;;2.10;;
54191;SDS011;40101;53.002;6.488;2023-08-20T08:09:38;9.70;;;2.50;;
54191;SDS011;40101;53.002;6.488;2023-08-20T08:12:04;7.63;;;2.00;;
54191;SDS011;40101;53.002;6.488;2023-08-20T08:14:30;5.97;;;1.98;;
54191;SDS011;40101;53.002;6.488;2023-08-20T08:16:56;10.15;;;2.67;;
54191;SDS011;40101;53.002;6.488;2023-08-20T08:19:22;5.22;;;1.88;;
54191;SDS011;40101;53.002;6.488;2023-08-20T08:21:48;7.25;;;2.50;;
54191;SDS011;40101;53.002;6.488;2023-08-20T08:24:14;7.38;;;2.47;;
54191;SDS011;40101;53.002;6.488;2023-08-20T08:26:40;7.32;;;1.90;;
54191;SDS011;40101;53.002;6.488;2023-08-20T08:29:07;6.25;;;1.67;;
54191;SDS011;40101;53.002;6.488;2023-08-20T08:31:33;7.50;;;2.03;;
54191;SDS011;40101;53.002;6.488;2023-08-20T08:34:01;7.45;;;1.77;;
54191;SDS011;40101;53.002;6.488;2023-08-20T08:36:28;7.55;;;1.70;;
54191;SDS011;40101;53.002;6.488;2023-08-20T08:38:54;6.95;;;1.88;;
54191;SDS011;40101;53.002;6.488;2023-08-20T08:41:23;4.45;;;1.60;;
54191;SDS011;40101;53.002;6.488;2023-08-20T08:44:00;9.55;;;2.53;;
54191;SDS011;40101;53.002;6.488;2023-08-20T08:46:27;7.32;;;2.00;;
54191;SDS011;40101;53.002;6.488;2023-08-20T08:48:56;4.15;;;1.13;;
54191;SDS011;40101;53.002;6.488;2023-08-20T08:51:27;8.48;;;2.13;;
54191;SDS011;40101;53.002;6.488;2023-08-20T08:53:55;6.05;;;1.77;;
54191;SDS011;40101;53.002;6.488;2023-08-20T08:56:21;6.78;;;1.60;;
54191;SDS011;40101;53.002;6.488;2023-08-20T08:58:47;6.07;;;1.60;;
54191;SDS011;40101;53.002;6.488;2023-08-20T09:01:13;8.23;;;2.08;;
54191;SDS011;40101;53.002;6.488;2023-08-20T09:03:38;7.15;;;1.83;;
54191;SDS011;40101;53.002;6.488;2023-08-20T09:06:07;4.75;;;1.38;;
54191;SDS011;40101;53.002;6.488;2023-08-20T09:08:34;6.95;;;1.48;;
54191;SDS011;40101;53.002;6.488;2023-08-20T09:11:00;7.47;;;1.90;;
54191;SDS011;40101;53.002;6.488;2023-08-20T09:16:02;7.47;;;2.28;;
54191;SDS011;40101;53.002;6.488;2023-08-20T09:18:29;5.95;;;1.30;;
54191;SDS011;40101;53.002;6.488;2023-08-20T09:20:56;5.35;;;1.27;;
54191;SDS011;40101;53.002;6.488;2023-08-20T09:23:23;8.63;;;1.83;;
54191;SDS011;40101;53.002;6.488;2023-08-20T09:25:48;6.47;;;1.45;;
54191;SDS011;40101;53.002;6.488;2023-08-20T09:28:14;7.65;;;1.60;;
54191;SDS011;40101;53.002;6.488;2023-08-20T09:30:40;5.22;;;1.42;;
54191;SDS011;40101;53.002;6.488;2023-08-20T09:33:19;4.93;;;1.75;;
54191;SDS011;40101;53.002;6.488;2023-08-20T09:35:53;6.07;;;1.58;;
54191;SDS011;40101;53.002;6.488;2023-08-20T09:38:45;3.70;;;1.45;;
54191;SDS011;40101;53.002;6.488;2023-08-20T09:41:17;8.43;;;1.77;;
54191;SDS011;40101;53.002;6.488;2023-08-20T09:43:56;6.40;;;1.23;;
54191;SDS011;40101;53.002;6.488;2023-08-20T09:47:05;4.95;;;1.58;;
54191;SDS011;40101;53.002;6.488;2023-08-20T09:50:19;6.13;;;1.45;;
54191;SDS011;40101;53.002;6.488;2023-08-20T09:53:03;7.57;;;1.73;;
54191;SDS011;40101;53.002;6.488;2023-08-20T09:55:44;4.85;;;1.27;;
54191;SDS011;40101;53.002;6.488;2023-08-20T09:58:12;8.02;;;0.90;;
54191;SDS011;40101;53.002;6.488;2023-08-20T10:00:40;7.55;;;1.77;;
54191;SDS011;40101;53.002;6.488;2023-08-20T10:03:06;6.60;;;1.25;;
54191;SDS011;40101;53.002;6.488;2023-08-20T10:05:32;6.95;;;1.42;;
54191;SDS011;40101;53.002;6.488;2023-08-20T10:07:58;8.20;;;1.45;;
54191;SDS011;40101;53.002;6.488;2023-08-20T10:10:25;5.65;;;1.90;;
54191;SDS011;40101;53.002;6.488;2023-08-20T10:12:51;6.45;;;1.40;;
54191;SDS011;40101;53.002;6.488;2023-08-20T10:15:17;6.85;;;1.10;;
54191;SDS011;40101;53.002;6.488;2023-08-20T10:17:44;4.85;;;1.33;;
54191;SDS011;40101;53.002;6.488;2023-08-20T10:20:12;5.65;;;1.20;;
54191;SDS011;40101;53.002;6.488;2023-08-20T10:22:41;6.18;;;1.58;;
54191;SDS011;40101;53.002;6.488;2023-08-20T10:25:09;7.75;;;1.85;;
54191;SDS011;40101;53.002;6.488;2023-08-20T10:27:37;3.67;;;0.90;;
54191;SDS011;40101;53.002;6.488;2023-08-20T10:30:23;5.25;;;1.85;;
54191;SDS011;40101;53.002;6.488;2023-08-20T10:33:05;4.82;;;1.02;;
54191;SDS011;40101;53.002;6.488;2023-08-20T10:48:42;2.78;;;0.93;;
54191;SDS011;40101;53.002;6.488;2023-08-20T10:54:10;4.20;;;1.10;;
54191;SDS011;40101;53.002;6.488;2023-08-20T11:04:25;5.55;;;1.30;;
54191;SDS011;40101;53.002;6.488;2023-08-20T11:07:18;3.40;;;1.02;;
54191;SDS011;40101;53.002;6.488;2023-08-20T11:12:50;5.10;;;0.82;;
54191;SDS011;40101;53.002;6.488;2023-08-20T11:15:28;7.30;;;1.33;;
54191;SDS011;40101;53.002;6.488;2023-08-20T11:18:11;6.45;;;0.82;;
54191;SDS011;40101;53.002;6.488;2023-08-20T11:21:26;5.95;;;1.25;;
54191;SDS011;40101;53.002;6.488;2023-08-20T11:24:19;3.35;;;0.80;;
54191;SDS011;40101;53.002;6.488;2023-08-20T11:27:30;5.07;;;1.08;;
54191;SDS011;40101;53.002;6.488;2023-08-20T11:30:29;4.03;;;0.88;;
54191;SDS011;40101;53.002;6.488;2023-08-20T11:33:25;5.38;;;0.93;;
54191;SDS011;40101;53.002;6.488;2023-08-20T11:36:40;3.78;;;0.98;;
54191;SDS011;40101;53.002;6.488;2023-08-20T11:39:24;5.25;;;1.30;;
54191;SDS011;40101;53.002;6.488;2023-08-20T11:42:16;2.58;;;0.80;;
54191;SDS011;40101;53.002;6.488;2023-08-20T11:44:44;5.90;;;1.50;;
54191;SDS011;40101;53.002;6.488;2023-08-20T11:47:17;6.63;;;1.25;;
54191;SDS011;40101;53.002;6.488;2023-08-20T11:49:44;2.78;;;0.75;;
54191;SDS011;40101;53.002;6.488;2023-08-20T11:52:10;3.22;;;1.08;;
54191;SDS011;40101;53.002;6.488;2023-08-20T11:54:37;5.55;;;1.55;;
54191;SDS011;40101;53.002;6.488;2023-08-20T11:57:04;3.50;;;1.23;;
54191;SDS011;40101;53.002;6.488;2023-08-20T11:59:30;3.95;;;0.88;;
54191;SDS011;40101;53.002;6.488;2023-08-20T12:01:57;5.82;;;1.42;;
54191;SDS011;40101;53.002;6.488;2023-08-20T12:04:25;5.90;;;1.40;;
54191;SDS011;40101;53.002;6.488;2023-08-20T12:07:05;5.43;;;1.30;;
54191;SDS011;40101;53.002;6.488;2023-08-20T12:09:31;3.10;;;1.23;;
54191;SDS011;40101;53.002;6.488;2023-08-20T12:11:57;3.78;;;1.00;;
54191;SDS011;40101;53.002;6.488;2023-08-20T12:14:24;4.47;;;1.08;;
54191;SDS011;40101;53.002;6.488;2023-08-20T12:16:50;3.53;;;1.27;;
54191;SDS011;40101;53.002;6.488;2023-08-20T12:19:18;3.30;;;0.90;;
54191;SDS011;40101;53.002;6.488;2023-08-20T12:21:44;5.70;;;1.23;;
54191;SDS011;40101;53.002;6.488;2023-08-20T12:24:11;5.63;;;1.30;;
54191;SDS011;40101;53.002;6.488;2023-08-20T12:26:37;3.33;;;0.90;;
54191;SDS011;40101;53.002;6.488;2023-08-20T12:29:03;6.20;;;1.13;;
54191;SDS011;40101;53.002;6.488;2023-08-20T12:31:29;3.72;;;0.98;;
54191;SDS011;40101;53.002;6.488;2023-08-20T12:33:56;5.63;;;1.10;;
54191;SDS011;40101;53.002;6.488;2023-08-20T12:36:21;5.75;;;1.23;;
54191;SDS011;40101;53.002;6.488;2023-08-20T12:38:47;3.95;;;1.08;;
54191;SDS011;40101;53.002;6.488;2023-08-20T12:41:13;6.60;;;1.00;;
54191;SDS011;40101;53.002;6.488;2023-08-20T12:43:39;4.32;;;0.98;;
54191;SDS011;40101;53.002;6.488;2023-08-20T12:46:05;5.40;;;1.42;;
54191;SDS011;40101;53.002;6.488;2023-08-20T12:48:30;3.78;;;0.85;;
54191;SDS011;40101;53.002;6.488;2023-08-20T12:50:56;3.30;;;0.85;;
54191;SDS011;40101;53.002;6.488;2023-08-20T12:53:22;4.18;;;1.33;;
54191;SDS011;40101;53.002;6.488;2023-08-20T12:55:48;3.90;;;1.08;;
54191;SDS011;40101;53.002;6.488;2023-08-20T12:58:13;3.85;;;1.25;;
54191;SDS011;40101;53.002;6.488;2023-08-20T13:00:39;4.57;;;1.45;;
54191;SDS011;40101;53.002;6.488;2023-08-20T13:03:05;3.90;;;1.40;;
54191;SDS011;40101;53.002;6.488;2023-08-20T13:05:31;3.97;;;1.10;;
54191;SDS011;40101;53.002;6.488;2023-08-20T13:07:57;5.10;;;1.42;;
54191;SDS011;40101;53.002;6.488;2023-08-20T13:10:23;4.90;;;0.85;;
54191;SDS011;40101;53.002;6.488;2023-08-20T13:12:52;3.35;;;0.77;;
54191;SDS011;40101;53.002;6.488;2023-08-20T13:15:19;3.05;;;0.98;;
54191;SDS011;40101;53.002;6.488;2023-08-20T13:17:47;5.53;;;1.02;;
54191;SDS011;40101;53.002;6.488;2023-08-20T13:20:14;3.90;;;1.48;;
54191;SDS011;40101;53.002;6.488;2023-08-20T13:22:40;3.10;;;1.10;;
54191;SDS011;40101;53.002;6.488;2023-08-20T13:25:06;1.60;;;1.02;;
54191;SDS011;40101;53.002;6.488;2023-08-20T13:27:32;1.52;;;0.50;;
54191;SDS011;40101;53.002;6.488;2023-08-20T13:29:58;4.63;;;0.98;;
54191;SDS011;40101;53.002;6.488;2023-08-20T13:32:24;3.45;;;1.17;;
54191;SDS011;40101;53.002;6.488;2023-08-20T13:34:50;3.70;;;0.75;;
54191;SDS011;40101;53.002;6.488;2023-08-20T13:37:16;2.90;;;0.90;;
54191;SDS011;40101;53.002;6.488;2023-08-20T13:39:42;3.75;;;0.95;;
54191;SDS011;40101;53.002;6.488;2023-08-20T13:42:08;4.35;;;0.93;;
54191;SDS011;40101;53.002;6.488;2023-08-20T13:44:34;4.75;;;1.10;;
54191;SDS011;40101;53.002;6.488;2023-08-20T13:46:59;2.95;;;0.80;;
54191;SDS011;40101;53.002;6.488;2023-08-20T13:49:25;3.30;;;1.23;;
54191;SDS011;40101;53.002;6.488;2023-08-20T13:51:51;2.42;;;0.77;;
54191;SDS011;40101;53.002;6.488;2023-08-20T13:54:16;2.50;;;0.60;;
54191;SDS011;40101;53.002;6.488;2023-08-20T13:56:42;3.28;;;0.95;;
54191;SDS011;40101;53.002;6.488;2023-08-20T13:59:11;2.67;;;0.75;;
54191;SDS011;40101;53.002;6.488;2023-08-20T14:01:37;3.35;;;0.75;;
54191;SDS011;40101;53.002;6.488;2023-08-20T14:04:02;3.28;;;0.75;;
54191;SDS011;40101;53.002;6.488;2023-08-20T14:06:28;2.90;;;0.82;;
54191;SDS011;40101;53.002;6.488;2023-08-20T14:08:54;4.45;;;0.60;;
54191;SDS011;40101;53.002;6.488;2023-08-20T14:11:20;3.08;;;0.63;;
54191;SDS011;40101;53.002;6.488;2023-08-20T14:13:47;2.00;;;1.20;;
54191;SDS011;40101;53.002;6.488;2023-08-20T14:16:13;3.40;;;0.80;;
54191;SDS011;40101;53.002;6.488;2023-08-20T14:18:38;1.75;;;0.70;;
54191;SDS011;40101;53.002;6.488;2023-08-20T14:21:04;1.55;;;0.50;;
54191;SDS011;40101;53.002;6.488;2023-08-20T14:23:30;2.95;;;0.63;;
54191;SDS011;40101;53.002;6.488;2023-08-20T14:25:55;4.15;;;0.80;;
54191;SDS011;40101;53.002;6.488;2023-08-20T14:28:21;2.05;;;0.50;;
54191;SDS011;40101;53.002;6.488;2023-08-20T14:30:47;2.05;;;0.75;;
54191;SDS011;40101;53.002;6.488;2023-08-20T14:33:19;2.83;;;1.38;;
54191;SDS011;40101;53.002;6.488;2023-08-20T14:35:45;2.40;;;0.85;;
54191;SDS011;40101;53.002;6.488;2023-08-20T14:38:11;2.00;;;0.52;;
54191;SDS011;40101;53.002;6.488;2023-08-20T14:40:40;2.05;;;0.47;;
54191;SDS011;40101;53.002;6.488;2023-08-20T14:43:06;2.88;;;0.80;;
54191;SDS011;40101;53.002;6.488;2023-08-20T14:45:32;3.38;;;0.63;;
54191;SDS011;40101;53.002;6.488;2023-08-20T14:48:00;2.55;;;0.70;;
54191;SDS011;40101;53.002;6.488;2023-08-20T14:50:26;2.10;;;0.40;;
54191;SDS011;40101;53.002;6.488;2023-08-20T14:52:52;2.25;;;0.98;;
54191;SDS011;40101;53.002;6.488;2023-08-20T14:55:18;3.88;;;0.93;;
54191;SDS011;40101;53.002;6.488;2023-08-20T14:57:44;3.45;;;0.75;;
54191;SDS011;40101;53.002;6.488;2023-08-20T15:00:10;5.82;;;1.60;;
54191;SDS011;40101;53.002;6.488;2023-08-20T15:02:42;3.95;;;1.00;;
54191;SDS011;40101;53.002;6.488;2023-08-20T15:05:09;4.65;;;1.00;;
54191;SDS011;40101;53.002;6.488;2023-08-20T15:07:35;4.78;;;0.98;;
54191;SDS011;40101;53.002;6.488;2023-08-20T15:10:01;7.47;;;1.23;;
54191;SDS011;40101;53.002;6.488;2023-08-20T15:12:28;3.90;;;0.95;;
54191;SDS011;40101;53.002;6.488;2023-08-20T15:14:56;3.45;;;1.45;;
54191;SDS011;40101;53.002;6.488;2023-08-20T15:17:21;5.68;;;1.13;;
54191;SDS011;40101;53.002;6.488;2023-08-20T15:19:47;2.45;;;1.00;;
54191;SDS011;40101;53.002;6.488;2023-08-20T15:22:13;3.70;;;0.63;;
54191;SDS011;40101;53.002;6.488;2023-08-20T15:24:39;4.85;;;0.88;;